Share

Higgins, TX (79046)

Barnes - Farm (KOKGAGE2) Alt. 2218 ft | 36.28 °N, 99.80 °W | Change Station

Current weather conditions updated 1 second ago

Overcast
Coperto
53.4 °F
Sembra 53.4 °F
N
8.0
Vento Variabile Vento da ENE
Gusts 14.0 mph
Sorgere del sole 7:04 AM
Tramonto del sole 8:15 PM
Luna Gobba a levante

Per domani si prevede un notevole aumento della temperatura rispetto a oggi.

Pressione 30.21 in
Visibilità 10.0 miglia
Nuvole Coperto 7500 ft
Punto di rugiada 35 °F
Umidità 49%
Piovosità 0.00 in
Spessore del manto nevoso Non disponibile.
Raggi UV 0.8 fuori da 16
Polline 6.80 fuori da 12
Qualità dell'aria Non disponibile.
Flu Activity Local Activity
METAR KGAG 172053Z AUTO 07008KT 10SM OVC075 11/00 A3021 RMK AO2 SLP230 60000 T01060000 57009

More Conditions Fewer Conditions

Pressione 30.21 in
Visibilità 10.0 miglia
Nuvole Coperto 7500 ft
Punto di rugiada 35 °F
Umidità 49%
Piovosità 0.00 in
Spessore del manto nevoso Non disponibile.
Raggi UV 0.8 fuori da 16
Polline 6.80 fuori da 12
Qualità dell'aria Non disponibile.
Flu Activity Local Activity
METAR KGAG 172053Z AUTO 07008KT 10SM OVC075 11/00 A3021 RMK AO2 SLP230 60000 T01060000 57009

More Conditions Fewer Conditions

10-Day Forecast

Almanac

Astronomia

Apr. 17, 2014 Alba Tramonto
Ora attuale 07:04 CDT 20:15 CDT
Crepuscolo civile 06:37 CDT 20:42 CDT
Crepuscolo nautico 06:05 CDT 21:14 CDT
Crepuscolo astronomico 05:33 CDT 21:47 CDT
Luna 22:59 CDT 08:40 CDT
Estensione della luce visibile 14h 04m
Lunghezza del giorno
13h 11m
Tomorrow will be 2m 9s longer.
Gobba a levante, 92% of the Moon is Illuminated
Oggi
Gobba a levante
Apr 22
Ultimo quarto
Apr 29
Nuovo
Mag 6
Primo quarto
Mag 14
Luna piena

Gli estremi di oggi

State Highs State Lows

Community

  • Morning Light
    Morning Light
  • New Day
    New Day
  • Lake Michigan Sunrise
    Lake Michigan Sunrise
  • sunset from izmir, narlıdere
    sunset from izmir, narlıdere
  • oregon cherry
    oregon cherry

WunderPhotos

Upload Photos

1,702,134 foto caricate!

Nearby

Profondità neve

Stazione Profondità Altitudine
Non sono state evidenziate nuove nevicate

Temperature delle acque costiere

Località Temperatura
Nessun dato dalle stazioni

Attività sismica

Città  Distanza Mag. Data & Ora
Non sono state riportate attività sismiche nelle vicinanze.
Minimo Magnitudo Mostrato è 2.5.

Stazioni meteo nelle vicinanze

Ubicazione della stazione Temp. Punto di rugiada Umidità Vento Precip. Alt. Aggiornato Tipo
Barnes - Farm, Gage, OK 53.4 °F 35 °F 49% ENE  a  8.0 mph 0.00 in / hr 2218 ft 4:23 PM CDT Sequenza Rapida

Show More Stations Show Fewer Stations

What do you think?

We're not finished. Please let us know what you like, what you don't like, and what you are still missing.